sensor_id;sensor_type;location;lat;lon;timestamp;temperature;humidity
36990;DHT22;22898;52.102;5.776;2023-05-16T00:01:38;13.80;99.90
36990;DHT22;22898;52.102;5.776;2023-05-16T00:04:04;13.90;99.90
36990;DHT22;22898;52.102;5.776;2023-05-16T00:06:30;13.60;99.90
36990;DHT22;22898;52.102;5.776;2023-05-16T00:08:56;13.60;99.90
36990;DHT22;22898;52.102;5.776;2023-05-16T00:11:22;13.50;99.90
36990;DHT22;22898;52.102;5.776;2023-05-16T00:13:47;13.10;99.90
36990;DHT22;22898;52.102;5.776;2023-05-16T00:16:13;13.30;99.90
36990;DHT22;22898;52.102;5.776;2023-05-16T00:18:39;13.20;99.90
36990;DHT22;22898;52.102;5.776;2023-05-16T00:21:05;13.70;99.90
36990;DHT22;22898;52.102;5.776;2023-05-16T00:23:31;14.00;99.90
36990;DHT22;22898;52.102;5.776;2023-05-16T00:25:57;13.60;99.90
36990;DHT22;22898;52.102;5.776;2023-05-16T00:28:22;13.40;99.90
36990;DHT22;22898;52.102;5.776;2023-05-16T00:30:48;13.80;99.90
36990;DHT22;22898;52.102;5.776;2023-05-16T00:33:14;14.10;99.90
36990;DHT22;22898;52.102;5.776;2023-05-16T00:35:39;14.10;99.90
36990;DHT22;22898;52.102;5.776;2023-05-16T00:38:05;13.70;99.90
36990;DHT22;22898;52.102;5.776;2023-05-16T00:40:31;13.40;99.90
36990;DHT22;22898;52.102;5.776;2023-05-16T00:42:57;13.80;99.90
36990;DHT22;22898;52.102;5.776;2023-05-16T00:45:22;14.30;99.90
36990;DHT22;22898;52.102;5.776;2023-05-16T00:47:49;14.50;99.90
36990;DHT22;22898;52.102;5.776;2023-05-16T00:50:15;14.30;99.90
36990;DHT22;22898;52.102;5.776;2023-05-16T00:52:41;14.30;99.90
36990;DHT22;22898;52.102;5.776;2023-05-16T00:55:07;14.50;99.90
36990;DHT22;22898;52.102;5.776;2023-05-16T00:57:35;14.90;99.90
36990;DHT22;22898;52.102;5.776;2023-05-16T01:00:01;15.00;99.90
36990;DHT22;22898;52.102;5.776;2023-05-16T01:02:27;14.90;99.90
36990;DHT22;22898;52.102;5.776;2023-05-16T01:04:53;14.90;99.90
36990;DHT22;22898;52.102;5.776;2023-05-16T01:07:19;15.10;99.90
36990;DHT22;22898;52.102;5.776;2023-05-16T01:09:45;14.90;99.90
36990;DHT22;22898;52.102;5.776;2023-05-16T01:12:13;14.70;99.90
36990;DHT22;22898;52.102;5.776;2023-05-16T01:14:57;15.00;99.90
36990;DHT22;22898;52.102;5.776;2023-05-16T01:17:52;15.00;99.90
36990;DHT22;22898;52.102;5.776;2023-05-16T01:20:31;15.10;99.90
36990;DHT22;22898;52.102;5.776;2023-05-16T01:25:53;14.70;99.90
36990;DHT22;22898;52.102;5.776;2023-05-16T01:28:22;15.00;99.90
36990;DHT22;22898;52.102;5.776;2023-05-16T01:30:50;15.20;99.90
36990;DHT22;22898;52.102;5.776;2023-05-16T01:33:15;15.50;99.90
36990;DHT22;22898;52.102;5.776;2023-05-16T01:36:13;15.70;99.90
36990;DHT22;22898;52.102;5.776;2023-05-16T01:38:49;15.80;99.90
36990;DHT22;22898;52.102;5.776;2023-05-16T01:44:00;16.10;99.90
36990;DHT22;22898;52.102;5.776;2023-05-16T01:46:32;15.50;99.90
36990;DHT22;22898;52.102;5.776;2023-05-16T01:49:25;15.30;99.90
36990;DHT22;22898;52.102;5.776;2023-05-16T01:52:00;15.20;99.90
36990;DHT22;22898;52.102;5.776;2023-05-16T01:54:30;14.90;99.90
36990;DHT22;22898;52.102;5.776;2023-05-16T01:56:56;15.00;99.90
36990;DHT22;22898;52.102;5.776;2023-05-16T01:59:23;14.80;99.90
36990;DHT22;22898;52.102;5.776;2023-05-16T02:01:52;14.90;99.90
36990;DHT22;22898;52.102;5.776;2023-05-16T02:04:18;15.10;99.90
36990;DHT22;22898;52.102;5.776;2023-05-16T02:06:43;15.30;99.90
36990;DHT22;22898;52.102;5.776;2023-05-16T02:09:09;15.60;99.90
36990;DHT22;22898;52.102;5.776;2023-05-16T02:11:35;15.60;99.90
36990;DHT22;22898;52.102;5.776;2023-05-16T02:14:00;15.90;99.90
36990;DHT22;22898;52.102;5.776;2023-05-16T02:16:26;15.90;99.90
36990;DHT22;22898;52.102;5.776;2023-05-16T02:18:51;16.00;99.90
36990;DHT22;22898;52.102;5.776;2023-05-16T02:21:17;16.10;99.90
36990;DHT22;22898;52.102;5.776;2023-05-16T02:23:43;16.00;99.90
36990;DHT22;22898;52.102;5.776;2023-05-16T02:26:08;16.10;99.90
36990;DHT22;22898;52.102;5.776;2023-05-16T02:28:34;16.30;99.90
36990;DHT22;22898;52.102;5.776;2023-05-16T02:31:00;16.40;99.90
36990;DHT22;22898;52.102;5.776;2023-05-16T02:33:27;16.30;99.90
36990;DHT22;22898;52.102;5.776;2023-05-16T02:35:53;16.30;99.90
36990;DHT22;22898;52.102;5.776;2023-05-16T02:38:18;16.10;99.90
36990;DHT22;22898;52.102;5.776;2023-05-16T02:40:46;16.00;99.90
36990;DHT22;22898;52.102;5.776;2023-05-16T02:43:12;16.00;99.90
36990;DHT22;22898;52.102;5.776;2023-05-16T02:45:37;16.10;99.90
36990;DHT22;22898;52.102;5.776;2023-05-16T02:48:03;16.20;99.90
36990;DHT22;22898;52.102;5.776;2023-05-16T02:50:29;16.30;99.90
36990;DHT22;22898;52.102;5.776;2023-05-16T02:52:54;16.50;99.90
36990;DHT22;22898;52.102;5.776;2023-05-16T02:55:20;16.50;99.90
36990;DHT22;22898;52.102;5.776;2023-05-16T02:57:46;16.40;99.90
36990;DHT22;22898;52.102;5.776;2023-05-16T03:00:12;16.20;99.90
36990;DHT22;22898;52.102;5.776;2023-05-16T03:02:38;16.10;99.90
36990;DHT22;22898;52.102;5.776;2023-05-16T03:05:04;16.20;99.90
36990;DHT22;22898;52.102;5.776;2023-05-16T03:07:30;15.80;99.90
36990;DHT22;22898;52.102;5.776;2023-05-16T03:09:56;15.90;99.90
36990;DHT22;22898;52.102;5.776;2023-05-16T03:12:21;16.00;99.90
36990;DHT22;22898;52.102;5.776;2023-05-16T03:14:47;15.90;99.90
36990;DHT22;22898;52.102;5.776;2023-05-16T03:17:12;16.10;99.90
36990;DHT22;22898;52.102;5.776;2023-05-16T03:19:38;16.20;99.90
36990;DHT22;22898;52.102;5.776;2023-05-16T03:22:04;16.10;99.90
36990;DHT22;22898;52.102;5.776;2023-05-16T03:24:30;16.20;99.90
36990;DHT22;22898;52.102;5.776;2023-05-16T03:26:55;16.20;99.90
36990;DHT22;22898;52.102;5.776;2023-05-16T03:29:21;16.40;99.90
36990;DHT22;22898;52.102;5.776;2023-05-16T03:31:46;16.50;99.90
36990;DHT22;22898;52.102;5.776;2023-05-16T03:34:12;16.70;99.90
36990;DHT22;22898;52.102;5.776;2023-05-16T03:36:38;16.60;99.90
36990;DHT22;22898;52.102;5.776;2023-05-16T03:39:04;16.40;99.90
36990;DHT22;22898;52.102;5.776;2023-05-16T03:41:30;16.50;99.90
36990;DHT22;22898;52.102;5.776;2023-05-16T03:43:55;16.70;99.90
36990;DHT22;22898;52.102;5.776;2023-05-16T03:46:21;16.60;99.90
36990;DHT22;22898;52.102;5.776;2023-05-16T03:48:46;16.70;99.90
36990;DHT22;22898;52.102;5.776;2023-05-16T03:51:12;16.60;99.90
36990;DHT22;22898;52.102;5.776;2023-05-16T03:53:37;16.50;99.90
36990;DHT22;22898;52.102;5.776;2023-05-16T03:56:04;16.20;99.90
36990;DHT22;22898;52.102;5.776;2023-05-16T03:58:30;15.80;99.90
36990;DHT22;22898;52.102;5.776;2023-05-16T04:00:55;15.70;99.90
36990;DHT22;22898;52.102;5.776;2023-05-16T04:03:21;15.90;99.90
36990;DHT22;22898;52.102;5.776;2023-05-16T04:05:56;16.00;99.90
36990;DHT22;22898;52.102;5.776;2023-05-16T04:08:21;15.80;99.90
36990;DHT22;22898;52.102;5.776;2023-05-16T04:10:47;15.80;99.90
36990;DHT22;22898;52.102;5.776;2023-05-16T04:13:13;15.80;99.90
36990;DHT22;22898;52.102;5.776;2023-05-16T04:15:39;16.00;99.90
36990;DHT22;22898;52.102;5.776;2023-05-16T04:18:05;16.00;99.90
36990;DHT22;22898;52.102;5.776;2023-05-16T04:20:30;16.10;99.90
36990;DHT22;22898;52.102;5.776;2023-05-16T04:22:56;16.40;99.90
36990;DHT22;22898;52.102;5.776;2023-05-16T04:25:21;16.50;99.90
36990;DHT22;22898;52.102;5.776;2023-05-16T04:27:47;16.70;99.90
36990;DHT22;22898;52.102;5.776;2023-05-16T04:30:12;16.80;99.90
36990;DHT22;22898;52.102;5.776;2023-05-16T04:32:39;16.90;99.90
36990;DHT22;22898;52.102;5.776;2023-05-16T04:35:05;16.80;99.90
36990;DHT22;22898;52.102;5.776;2023-05-16T04:37:33;16.80;99.90
36990;DHT22;22898;52.102;5.776;2023-05-16T04:40:00;16.80;99.90
36990;DHT22;22898;52.102;5.776;2023-05-16T04:42:26;16.80;99.90
36990;DHT22;22898;52.102;5.776;2023-05-16T04:44:51;16.90;99.90
36990;DHT22;22898;52.102;5.776;2023-05-16T04:47:17;16.70;99.90
36990;DHT22;22898;52.102;5.776;2023-05-16T04:49:43;16.60;99.90
36990;DHT22;22898;52.102;5.776;2023-05-16T04:52:08;16.70;99.90
36990;DHT22;22898;52.102;5.776;2023-05-16T04:54:34;16.80;99.90
36990;DHT22;22898;52.102;5.776;2023-05-16T04:56:59;16.80;99.90
36990;DHT22;22898;52.102;5.776;2023-05-16T04:59:25;16.90;99.90
36990;DHT22;22898;52.102;5.776;2023-05-16T05:01:51;17.20;99.90
36990;DHT22;22898;52.102;5.776;2023-05-16T05:04:16;17.40;99.80
36990;DHT22;22898;52.102;5.776;2023-05-16T05:06:42;17.50;99.50
36990;DHT22;22898;52.102;5.776;2023-05-16T05:09:08;17.50;99.50
36990;DHT22;22898;52.102;5.776;2023-05-16T05:11:34;17.60;99.50
36990;DHT22;22898;52.102;5.776;2023-05-16T05:14:00;17.60;99.30
36990;DHT22;22898;52.102;5.776;2023-05-16T05:16:25;17.70;99.30
36990;DHT22;22898;52.102;5.776;2023-05-16T05:18:51;17.70;99.00
36990;DHT22;22898;52.102;5.776;2023-05-16T05:21:17;17.70;99.10
36990;DHT22;22898;52.102;5.776;2023-05-16T05:23:44;17.70;99.30
36990;DHT22;22898;52.102;5.776;2023-05-16T05:26:10;17.80;99.20
36990;DHT22;22898;52.102;5.776;2023-05-16T05:28:36;17.80;98.90
36990;DHT22;22898;52.102;5.776;2023-05-16T05:31:03;17.70;98.90
36990;DHT22;22898;52.102;5.776;2023-05-16T05:33:30;17.60;99.00
36990;DHT22;22898;52.102;5.776;2023-05-16T05:35:55;17.40;99.00
36990;DHT22;22898;52.102;5.776;2023-05-16T05:38:21;17.30;99.00
36990;DHT22;22898;52.102;5.776;2023-05-16T05:40:47;17.00;99.50
36990;DHT22;22898;52.102;5.776;2023-05-16T05:43:14;16.80;99.70
36990;DHT22;22898;52.102;5.776;2023-05-16T05:45:39;16.60;99.90
36990;DHT22;22898;52.102;5.776;2023-05-16T05:48:05;16.50;99.90
36990;DHT22;22898;52.102;5.776;2023-05-16T05:50:31;16.50;99.90
36990;DHT22;22898;52.102;5.776;2023-05-16T05:52:57;16.60;99.90
36990;DHT22;22898;52.102;5.776;2023-05-16T05:55:22;16.90;99.80
36990;DHT22;22898;52.102;5.776;2023-05-16T05:57:48;17.10;99.90
36990;DHT22;22898;52.102;5.776;2023-05-16T06:00:13;17.20;99.60
36990;DHT22;22898;52.102;5.776;2023-05-16T06:02:39;17.10;99.40
36990;DHT22;22898;52.102;5.776;2023-05-16T06:05:05;17.20;99.40
36990;DHT22;22898;52.102;5.776;2023-05-16T06:07:31;17.10;99.50
36990;DHT22;22898;52.102;5.776;2023-05-16T06:09:56;16.90;99.90
36990;DHT22;22898;52.102;5.776;2023-05-16T06:12:23;16.80;99.90
36990;DHT22;22898;52.102;5.776;2023-05-16T06:14:48;16.80;99.90
36990;DHT22;22898;52.102;5.776;2023-05-16T06:17:14;15.90;99.90
36990;DHT22;22898;52.102;5.776;2023-05-16T06:19:40;15.50;99.90
36990;DHT22;22898;52.102;5.776;2023-05-16T06:22:05;15.30;99.90
36990;DHT22;22898;52.102;5.776;2023-05-16T06:24:31;15.00;99.90
36990;DHT22;22898;52.102;5.776;2023-05-16T06:26:56;14.90;99.90
36990;DHT22;22898;52.102;5.776;2023-05-16T06:29:22;14.90;99.90
36990;DHT22;22898;52.102;5.776;2023-05-16T06:31:48;14.70;99.90
36990;DHT22;22898;52.102;5.776;2023-05-16T06:34:13;14.30;99.90
36990;DHT22;22898;52.102;5.776;2023-05-16T06:36:39;14.40;99.90
36990;DHT22;22898;52.102;5.776;2023-05-16T06:39:04;14.50;99.90
36990;DHT22;22898;52.102;5.776;2023-05-16T06:41:30;14.10;99.90
36990;DHT22;22898;52.102;5.776;2023-05-16T06:43:56;14.00;99.90
36990;DHT22;22898;52.102;5.776;2023-05-16T06:46:21;14.00;99.90
36990;DHT22;22898;52.102;5.776;2023-05-16T06:48:47;14.50;99.90
36990;DHT22;22898;52.102;5.776;2023-05-16T06:51:12;14.40;99.90
36990;DHT22;22898;52.102;5.776;2023-05-16T06:53:39;14.10;99.90
36990;DHT22;22898;52.102;5.776;2023-05-16T06:56:05;13.50;99.90
36990;DHT22;22898;52.102;5.776;2023-05-16T06:58:30;13.40;99.90
36990;DHT22;22898;52.102;5.776;2023-05-16T07:00:56;13.60;99.90
36990;DHT22;22898;52.102;5.776;2023-05-16T07:03:21;14.30;99.90
36990;DHT22;22898;52.102;5.776;2023-05-16T07:05:47;14.10;99.90
36990;DHT22;22898;52.102;5.776;2023-05-16T07:08:12;14.20;99.90
36990;DHT22;22898;52.102;5.776;2023-05-16T07:10:38;14.10;99.90
36990;DHT22;22898;52.102;5.776;2023-05-16T07:13:04;14.60;99.90
36990;DHT22;22898;52.102;5.776;2023-05-16T07:15:30;14.30;99.90
36990;DHT22;22898;52.102;5.776;2023-05-16T07:17:56;13.60;99.90
36990;DHT22;22898;52.102;5.776;2023-05-16T07:20:22;14.00;99.90
36990;DHT22;22898;52.102;5.776;2023-05-16T07:22:47;14.10;99.90
36990;DHT22;22898;52.102;5.776;2023-05-16T07:25:13;14.30;99.90
36990;DHT22;22898;52.102;5.776;2023-05-16T07:27:40;14.80;99.90
36990;DHT22;22898;52.102;5.776;2023-05-16T07:30:08;14.70;99.90
36990;DHT22;22898;52.102;5.776;2023-05-16T07:32:34;14.60;99.90
36990;DHT22;22898;52.102;5.776;2023-05-16T07:35:00;14.90;99.90
36990;DHT22;22898;52.102;5.776;2023-05-16T07:37:25;14.10;99.90
36990;DHT22;22898;52.102;5.776;2023-05-16T07:39:51;13.50;99.90
36990;DHT22;22898;52.102;5.776;2023-05-16T07:42:16;13.40;99.90
36990;DHT22;22898;52.102;5.776;2023-05-16T07:44:42;13.80;99.90
36990;DHT22;22898;52.102;5.776;2023-05-16T07:47:07;13.70;99.90
36990;DHT22;22898;52.102;5.776;2023-05-16T07:49:33;13.80;99.90
36990;DHT22;22898;52.102;5.776;2023-05-16T07:51:58;14.40;99.90
36990;DHT22;22898;52.102;5.776;2023-05-16T07:54:24;14.70;99.90
36990;DHT22;22898;52.102;5.776;2023-05-16T07:56:50;15.00;99.90
36990;DHT22;22898;52.102;5.776;2023-05-16T07:59:15;15.20;99.70
36990;DHT22;22898;52.102;5.776;2023-05-16T08:01:41;14.30;99.90
36990;DHT22;22898;52.102;5.776;2023-05-16T08:04:06;13.90;99.90
36990;DHT22;22898;52.102;5.776;2023-05-16T08:06:32;13.70;99.90
36990;DHT22;22898;52.102;5.776;2023-05-16T08:08:58;13.60;99.90
36990;DHT22;22898;52.102;5.776;2023-05-16T08:11:24;13.70;99.90
36990;DHT22;22898;52.102;5.776;2023-05-16T08:13:50;13.70;99.90
36990;DHT22;22898;52.102;5.776;2023-05-16T08:16:15;13.60;99.90
36990;DHT22;22898;52.102;5.776;2023-05-16T08:18:41;13.90;99.90
36990;DHT22;22898;52.102;5.776;2023-05-16T08:21:07;14.20;99.90
36990;DHT22;22898;52.102;5.776;2023-05-16T08:23:33;14.40;99.90
36990;DHT22;22898;52.102;5.776;2023-05-16T08:25:59;14.20;99.90
36990;DHT22;22898;52.102;5.776;2023-05-16T08:28:25;13.90;99.90
36990;DHT22;22898;52.102;5.776;2023-05-16T08:30:51;13.70;99.90
36990;DHT22;22898;52.102;5.776;2023-05-16T08:33:16;13.50;99.90
36990;DHT22;22898;52.102;5.776;2023-05-16T08:35:43;13.90;99.90
36990;DHT22;22898;52.102;5.776;2023-05-16T08:38:09;14.00;99.90
36990;DHT22;22898;52.102;5.776;2023-05-16T08:40:34;14.50;99.90
36990;DHT22;22898;52.102;5.776;2023-05-16T08:43:00;14.40;99.90
36990;DHT22;22898;52.102;5.776;2023-05-16T08:45:26;14.60;99.90
36990;DHT22;22898;52.102;5.776;2023-05-16T08:47:54;14.90;99.90
36990;DHT22;22898;52.102;5.776;2023-05-16T08:50:21;15.40;99.90
36990;DHT22;22898;52.102;5.776;2023-05-16T08:52:50;15.70;99.90
36990;DHT22;22898;52.102;5.776;2023-05-16T08:55:18;16.10;99.90
36990;DHT22;22898;52.102;5.776;2023-05-16T08:57:44;16.30;99.90
36990;DHT22;22898;52.102;5.776;2023-05-16T09:00:11;16.10;99.90
36990;DHT22;22898;52.102;5.776;2023-05-16T09:02:41;15.40;99.90
36990;DHT22;22898;52.102;5.776;2023-05-16T09:05:08;15.30;99.90
36990;DHT22;22898;52.102;5.776;2023-05-16T09:07:35;15.50;99.90
36990;DHT22;22898;52.102;5.776;2023-05-16T09:10:00;15.40;99.90
36990;DHT22;22898;52.102;5.776;2023-05-16T09:12:26;15.30;99.90
36990;DHT22;22898;52.102;5.776;2023-05-16T09:14:51;15.00;99.90
36990;DHT22;22898;52.102;5.776;2023-05-16T09:17:17;15.00;99.90
36990;DHT22;22898;52.102;5.776;2023-05-16T09:19:43;15.10;99.70
36990;DHT22;22898;52.102;5.776;2023-05-16T09:22:13;15.60;98.70
36990;DHT22;22898;52.102;5.776;2023-05-16T09:24:40;15.80;98.70
36990;DHT22;22898;52.102;5.776;2023-05-16T09:27:13;16.40;98.40
36990;DHT22;22898;52.102;5.776;2023-05-16T09:29:40;16.70;97.80
36990;DHT22;22898;52.102;5.776;2023-05-16T09:32:13;16.60;97.80
36990;DHT22;22898;52.102;5.776;2023-05-16T09:34:48;16.20;96.70
36990;DHT22;22898;52.102;5.776;2023-05-16T09:37:15;15.60;97.20
36990;DHT22;22898;52.102;5.776;2023-05-16T09:39:45;15.70;97.70
36990;DHT22;22898;52.102;5.776;2023-05-16T09:42:16;16.20;97.60
36990;DHT22;22898;52.102;5.776;2023-05-16T09:44:46;16.30;96.60
36990;DHT22;22898;52.102;5.776;2023-05-16T09:47:17;16.00;96.00
36990;DHT22;22898;52.102;5.776;2023-05-16T09:49:44;16.00;96.20
36990;DHT22;22898;52.102;5.776;2023-05-16T09:52:10;16.00;96.90
36990;DHT22;22898;52.102;5.776;2023-05-16T09:54:36;16.00;96.00
36990;DHT22;22898;52.102;5.776;2023-05-16T09:57:01;15.70;95.30
36990;DHT22;22898;52.102;5.776;2023-05-16T09:59:28;15.30;96.60
36990;DHT22;22898;52.102;5.776;2023-05-16T10:01:57;15.10;96.90
36990;DHT22;22898;52.102;5.776;2023-05-16T10:04:23;14.90;97.40
36990;DHT22;22898;52.102;5.776;2023-05-16T10:06:49;15.20;96.70
36990;DHT22;22898;52.102;5.776;2023-05-16T10:09:17;15.40;96.80
36990;DHT22;22898;52.102;5.776;2023-05-16T10:11:44;16.00;96.40
36990;DHT22;22898;52.102;5.776;2023-05-16T10:14:11;16.60;96.00
36990;DHT22;22898;52.102;5.776;2023-05-16T10:16:42;16.70;94.10
36990;DHT22;22898;52.102;5.776;2023-05-16T10:19:08;16.20;94.10
36990;DHT22;22898;52.102;5.776;2023-05-16T10:21:34;16.30;94.60
36990;DHT22;22898;52.102;5.776;2023-05-16T10:24:02;16.00;95.20
36990;DHT22;22898;52.102;5.776;2023-05-16T10:26:31;16.20;96.40
36990;DHT22;22898;52.102;5.776;2023-05-16T10:29:00;16.20;96.60
36990;DHT22;22898;52.102;5.776;2023-05-16T10:31:27;16.10;96.90
36990;DHT22;22898;52.102;5.776;2023-05-16T10:33:55;16.00;97.00
36990;DHT22;22898;52.102;5.776;2023-05-16T10:36:21;16.00;97.40
36990;DHT22;22898;52.102;5.776;2023-05-16T10:38:47;16.40;96.90
36990;DHT22;22898;52.102;5.776;2023-05-16T10:41:13;16.30;96.50
36990;DHT22;22898;52.102;5.776;2023-05-16T10:43:43;16.50;95.10
36990;DHT22;22898;52.102;5.776;2023-05-16T10:46:10;16.80;94.00
36990;DHT22;22898;52.102;5.776;2023-05-16T10:48:40;16.70;92.00
36990;DHT22;22898;52.102;5.776;2023-05-16T10:53:46;15.60;93.10
36990;DHT22;22898;52.102;5.776;2023-05-16T10:56:12;15.70;93.50
36990;DHT22;22898;52.102;5.776;2023-05-16T11:01:40;15.40;95.20
36990;DHT22;22898;52.102;5.776;2023-05-16T11:04:08;15.30;96.50
36990;DHT22;22898;52.102;5.776;2023-05-16T11:14:39;15.70;96.10
36990;DHT22;22898;52.102;5.776;2023-05-16T11:17:15;16.40;95.00
36990;DHT22;22898;52.102;5.776;2023-05-16T11:19:48;17.10;93.90
36990;DHT22;22898;52.102;5.776;2023-05-16T11:22:29;17.30;92.70
36990;DHT22;22898;52.102;5.776;2023-05-16T11:25:07;17.20;92.90
36990;DHT22;22898;52.102;5.776;2023-05-16T11:27:35;17.40;92.70
36990;DHT22;22898;52.102;5.776;2023-05-16T11:32:30;17.20;91.80
36990;DHT22;22898;52.102;5.776;2023-05-16T11:34:57;17.10;91.40
36990;DHT22;22898;52.102;5.776;2023-05-16T11:37:23;16.60;92.40
36990;DHT22;22898;52.102;5.776;2023-05-16T11:39:49;16.50;92.70
36990;DHT22;22898;52.102;5.776;2023-05-16T11:42:15;16.20;93.10
36990;DHT22;22898;52.102;5.776;2023-05-16T11:44:42;15.80;94.40
36990;DHT22;22898;52.102;5.776;2023-05-16T11:47:08;15.80;94.30
36990;DHT22;22898;52.102;5.776;2023-05-16T11:49:34;16.00;94.00
36990;DHT22;22898;52.102;5.776;2023-05-16T11:52:00;15.90;94.40
36990;DHT22;22898;52.102;5.776;2023-05-16T11:54:26;16.40;94.30
36990;DHT22;22898;52.102;5.776;2023-05-16T11:56:52;16.10;92.50
36990;DHT22;22898;52.102;5.776;2023-05-16T11:59:18;16.20;93.60
36990;DHT22;22898;52.102;5.776;2023-05-16T12:01:44;16.30;93.70
36990;DHT22;22898;52.102;5.776;2023-05-16T12:04:13;16.30;93.20
36990;DHT22;22898;52.102;5.776;2023-05-16T12:06:39;16.50;93.50
36990;DHT22;22898;52.102;5.776;2023-05-16T12:09:11;16.80;92.90
36990;DHT22;22898;52.102;5.776;2023-05-16T12:11:39;16.80;92.00
36990;DHT22;22898;52.102;5.776;2023-05-16T12:14:14;16.90;91.80
36990;DHT22;22898;52.102;5.776;2023-05-16T12:16:40;17.30;92.90
36990;DHT22;22898;52.102;5.776;2023-05-16T12:19:07;17.60;92.30
36990;DHT22;22898;52.102;5.776;2023-05-16T12:21:34;17.60;92.50
36990;DHT22;22898;52.102;5.776;2023-05-16T12:24:00;17.20;92.50
36990;DHT22;22898;52.102;5.776;2023-05-16T12:26:27;17.30;92.40
36990;DHT22;22898;52.102;5.776;2023-05-16T12:29:04;17.20;93.30
36990;DHT22;22898;52.102;5.776;2023-05-16T12:31:38;17.00;94.00
36990;DHT22;22898;52.102;5.776;2023-05-16T12:34:13;17.10;94.10
36990;DHT22;22898;52.102;5.776;2023-05-16T12:36:38;17.00;94.00
36990;DHT22;22898;52.102;5.776;2023-05-16T12:39:04;16.40;95.20
36990;DHT22;22898;52.102;5.776;2023-05-16T12:41:30;16.00;95.90
36990;DHT22;22898;52.102;5.776;2023-05-16T12:44:12;16.00;96.50
36990;DHT22;22898;52.102;5.776;2023-05-16T12:46:42;15.70;97.70
36990;DHT22;22898;52.102;5.776;2023-05-16T12:49:08;15.40;98.30
36990;DHT22;22898;52.102;5.776;2023-05-16T12:51:33;15.70;98.10
36990;DHT22;22898;52.102;5.776;2023-05-16T12:54:09;15.80;98.30
36990;DHT22;22898;52.102;5.776;2023-05-16T12:56:37;15.90;98.20
36990;DHT22;22898;52.102;5.776;2023-05-16T12:59:02;16.80;96.80
36990;DHT22;22898;52.102;5.776;2023-05-16T13:01:28;17.40;95.90
36990;DHT22;22898;52.102;5.776;2023-05-16T13:03:53;17.20;94.80
36990;DHT22;22898;52.102;5.776;2023-05-16T13:06:19;17.20;95.90
36990;DHT22;22898;52.102;5.776;2023-05-16T13:08:44;17.40;95.40
36990;DHT22;22898;52.102;5.776;2023-05-16T13:11:10;17.20;94.90
36990;DHT22;22898;52.102;5.776;2023-05-16T13:13:39;17.20;95.60
36990;DHT22;22898;52.102;5.776;2023-05-16T13:16:04;17.60;95.50
36990;DHT22;22898;52.102;5.776;2023-05-16T13:18:30;17.40;95.40
36990;DHT22;22898;52.102;5.776;2023-05-16T13:20:56;17.40;95.70
36990;DHT22;22898;52.102;5.776;2023-05-16T13:23:21;17.40;96.00
36990;DHT22;22898;52.102;5.776;2023-05-16T13:25:47;17.90;95.40
36990;DHT22;22898;52.102;5.776;2023-05-16T13:28:13;17.30;96.10
36990;DHT22;22898;52.102;5.776;2023-05-16T13:30:38;17.00;95.90
36990;DHT22;22898;52.102;5.776;2023-05-16T13:33:04;16.60;96.40
36990;DHT22;22898;52.102;5.776;2023-05-16T13:35:30;16.30;97.00
36990;DHT22;22898;52.102;5.776;2023-05-16T13:37:55;16.90;96.70
36990;DHT22;22898;52.102;5.776;2023-05-16T13:40:21;17.30;95.90
36990;DHT22;22898;52.102;5.776;2023-05-16T13:42:47;16.80;96.40
36990;DHT22;22898;52.102;5.776;2023-05-16T13:45:13;16.30;97.10
36990;DHT22;22898;52.102;5.776;2023-05-16T13:47:39;15.60;98.00
36990;DHT22;22898;52.102;5.776;2023-05-16T13:50:05;15.00;98.90
36990;DHT22;22898;52.102;5.776;2023-05-16T13:52:34;15.20;98.70
36990;DHT22;22898;52.102;5.776;2023-05-16T13:55:00;15.50;98.90
36990;DHT22;22898;52.102;5.776;2023-05-16T13:57:25;15.50;98.70
36990;DHT22;22898;52.102;5.776;2023-05-16T13:59:52;15.00;99.50
36990;DHT22;22898;52.102;5.776;2023-05-16T14:02:18;14.90;99.90
36990;DHT22;22898;52.102;5.776;2023-05-16T14:04:43;15.10;99.70
36990;DHT22;22898;52.102;5.776;2023-05-16T14:07:09;15.20;99.70
36990;DHT22;22898;52.102;5.776;2023-05-16T14:09:35;15.50;99.30
36990;DHT22;22898;52.102;5.776;2023-05-16T14:12:05;16.30;98.60
36990;DHT22;22898;52.102;5.776;2023-05-16T14:14:32;16.70;97.70
36990;DHT22;22898;52.102;5.776;2023-05-16T14:16:57;16.80;98.00
36990;DHT22;22898;52.102;5.776;2023-05-16T14:19:23;16.80;98.20
36990;DHT22;22898;52.102;5.776;2023-05-16T14:21:49;17.10;97.20
36990;DHT22;22898;52.102;5.776;2023-05-16T14:24:14;17.20;96.20
36990;DHT22;22898;52.102;5.776;2023-05-16T14:26:40;16.70;96.70
36990;DHT22;22898;52.102;5.776;2023-05-16T14:29:06;17.20;96.30
36990;DHT22;22898;52.102;5.776;2023-05-16T14:31:32;17.30;95.90
36990;DHT22;22898;52.102;5.776;2023-05-16T14:33:57;17.00;96.20
36990;DHT22;22898;52.102;5.776;2023-05-16T14:36:23;17.20;96.00
36990;DHT22;22898;52.102;5.776;2023-05-16T14:38:49;18.00;94.90
36990;DHT22;22898;52.102;5.776;2023-05-16T14:41:15;18.10;94.60
36990;DHT22;22898;52.102;5.776;2023-05-16T14:43:41;18.10;94.20
36990;DHT22;22898;52.102;5.776;2023-05-16T14:46:06;18.00;94.50
36990;DHT22;22898;52.102;5.776;2023-05-16T14:48:32;18.20;94.00
36990;DHT22;22898;52.102;5.776;2023-05-16T14:50:58;18.20;94.00
36990;DHT22;22898;52.102;5.776;2023-05-16T14:53:23;17.90;94.10
36990;DHT22;22898;52.102;5.776;2023-05-16T14:55:49;17.40;94.80
36990;DHT22;22898;52.102;5.776;2023-05-16T14:58:14;16.90;95.60
36990;DHT22;22898;52.102;5.776;2023-05-16T15:00:40;17.30;95.40
36990;DHT22;22898;52.102;5.776;2023-05-16T15:03:06;17.10;95.20
36990;DHT22;22898;52.102;5.776;2023-05-16T15:05:31;16.70;95.90
36990;DHT22;22898;52.102;5.776;2023-05-16T15:07:57;16.60;96.50
36990;DHT22;22898;52.102;5.776;2023-05-16T15:10:23;16.80;96.20
36990;DHT22;22898;52.102;5.776;2023-05-16T15:12:48;16.90;96.10
36990;DHT22;22898;52.102;5.776;2023-05-16T15:15:14;17.30;95.60
36990;DHT22;22898;52.102;5.776;2023-05-16T15:17:40;17.40;95.30
36990;DHT22;22898;52.102;5.776;2023-05-16T15:20:07;17.60;95.00
36990;DHT22;22898;52.102;5.776;2023-05-16T15:22:34;17.50;94.90
36990;DHT22;22898;52.102;5.776;2023-05-16T15:25:00;17.10;94.90
36990;DHT22;22898;52.102;5.776;2023-05-16T15:27:27;16.80;95.30
36990;DHT22;22898;52.102;5.776;2023-05-16T15:29:52;16.70;95.80
36990;DHT22;22898;52.102;5.776;2023-05-16T15:32:18;17.60;95.10
36990;DHT22;22898;52.102;5.776;2023-05-16T15:34:44;18.00;93.90
36990;DHT22;22898;52.102;5.776;2023-05-16T15:37:10;18.00;94.20
36990;DHT22;22898;52.102;5.776;2023-05-16T15:39:35;18.40;93.30
36990;DHT22;22898;52.102;5.776;2023-05-16T15:42:01;18.30;93.90
36990;DHT22;22898;52.102;5.776;2023-05-16T15:44:30;18.50;93.50
36990;DHT22;22898;52.102;5.776;2023-05-16T15:46:56;18.00;93.90
36990;DHT22;22898;52.102;5.776;2023-05-16T15:49:22;17.60;94.50